createdAt,value
2018-11-01T00:00:16.317Z,5.10
2018-11-01T00:02:45.122Z,5.10
2018-11-01T00:05:14.702Z,5.00
2018-11-01T00:07:43.849Z,5.00
2018-11-01T00:10:12.941Z,5.00
2018-11-01T00:12:43.555Z,5.00
2018-11-01T00:15:13.682Z,5.00
2018-11-01T00:17:42.438Z,5.10
2018-11-01T00:20:12.691Z,5.00
2018-11-01T00:22:43.634Z,5.00
2018-11-01T00:25:13.184Z,5.00
2018-11-01T00:27:43.489Z,5.00
2018-11-01T00:30:12.902Z,5.00
2018-11-01T00:32:41.587Z,5.00
2018-11-01T00:35:10.359Z,5.10
2018-11-01T00:37:39.125Z,5.10
2018-11-01T00:40:10.381Z,5.10
2018-11-01T00:42:39.131Z,5.10
2018-11-01T00:45:08.545Z,5.10
2018-11-01T00:47:37.248Z,4.90
2018-11-01T00:50:08.222Z,4.80
2018-11-01T00:52:37.012Z,4.70
2018-11-01T00:55:05.997Z,4.70
2018-11-01T00:57:34.717Z,4.70
2018-11-01T01:00:03.440Z,4.70
2018-11-01T01:02:32.070Z,4.70
2018-11-01T01:05:00.835Z,4.80
2018-11-01T01:07:29.526Z,4.90
2018-11-01T01:09:58.462Z,4.90
2018-11-01T01:12:27.212Z,5.00
2018-11-01T01:14:55.880Z,5.00
2018-11-01T01:17:24.560Z,5.00
2018-11-01T01:19:53.260Z,5.00
2018-11-01T01:22:22.738Z,5.00
2018-11-01T01:24:51.421Z,5.00
2018-11-01T01:27:20.146Z,4.90
2018-11-01T01:29:48.974Z,4.90
2018-11-01T01:32:17.649Z,4.80
2018-11-01T01:34:46.631Z,4.60
2018-11-01T01:37:15.371Z,4.60
2018-11-01T01:39:44.130Z,4.50
2018-11-01T01:42:13.453Z,4.40
2018-11-01T01:44:42.146Z,4.40
2018-11-01T01:47:10.902Z,4.40
2018-11-01T01:49:39.602Z,4.40
2018-11-01T01:52:08.705Z,4.40
2018-11-01T01:54:37.426Z,4.40
2018-11-01T01:57:06.218Z,4.30
2018-11-01T01:59:34.973Z,4.30
2018-11-01T02:02:03.704Z,4.30
2018-11-01T02:04:32.342Z,4.30
2018-11-01T02:07:01.082Z,4.30
2018-11-01T02:09:29.959Z,4.30
2018-11-01T02:11:58.657Z,4.30
2018-11-01T02:14:29.995Z,4.30
2018-11-01T02:16:58.620Z,4.30
2018-11-01T02:19:29.464Z,4.30
2018-11-01T02:21:58.223Z,4.20
2018-11-01T02:24:26.974Z,4.10
2018-11-01T02:26:55.645Z,4.00
2018-11-01T02:29:24.348Z,4.00
2018-11-01T02:31:53.087Z,4.00
2018-11-01T02:34:21.772Z,3.90
2018-11-01T02:36:50.420Z,3.90
2018-11-01T02:39:25.263Z,3.80
2018-11-01T02:41:54.005Z,3.70
2018-11-01T02:44:22.741Z,3.60
2018-11-01T02:46:51.389Z,3.50
2018-11-01T02:49:20.126Z,3.30
2018-11-01T02:51:48.747Z,3.20
2018-11-01T02:54:17.399Z,3.00
2018-11-01T02:56:46.268Z,2.80
2018-11-01T02:59:14.911Z,2.80
2018-11-01T03:01:43.603Z,2.90
2018-11-01T03:04:12.307Z,3.00
2018-11-01T03:06:40.903Z,3.00
2018-11-01T03:09:09.612Z,3.00
2018-11-01T03:11:38.539Z,2.90
2018-11-01T03:14:07.561Z,2.90
2018-11-01T03:16:36.252Z,2.90
2018-11-01T03:19:05.614Z,2.90
2018-11-01T03:21:34.333Z,2.90
2018-11-01T03:24:03.234Z,2.90
2018-11-01T03:26:32.041Z,2.90
2018-11-01T03:29:00.864Z,2.80
2018-11-01T03:31:29.492Z,2.80
2018-11-01T03:33:58.199Z,2.80
2018-11-01T03:36:26.896Z,2.70
2018-11-01T03:38:55.692Z,2.80
2018-11-01T03:41:24.317Z,2.80
2018-11-01T03:43:53.893Z,2.80
2018-11-01T03:46:22.698Z,2.80
2018-11-01T03:48:51.398Z,2.70
2018-11-01T03:51:20.092Z,2.70
2018-11-01T03:53:48.824Z,2.70
2018-11-01T03:56:17.555Z,2.70
2018-11-01T03:58:46.249Z,2.80
2018-11-01T04:01:14.960Z,2.80
2018-11-01T04:03:43.640Z,2.80
2018-11-01T04:06:12.352Z,2.70
2018-11-01T04:08:41.088Z,2.70
2018-11-01T04:11:09.852Z,2.70
2018-11-01T04:13:38.761Z,2.70
2018-11-01T04:16:07.680Z,2.60
2018-11-01T04:18:36.439Z,2.50
2018-11-01T04:21:05.548Z,2.50
2018-11-01T04:23:34.384Z,2.50
2018-11-01T04:26:03.096Z,2.50
2018-11-01T04:28:31.904Z,2.60
2018-11-01T04:31:00.540Z,2.60
2018-11-01T04:33:29.331Z,2.50
2018-11-01T04:35:57.901Z,2.30
2018-11-01T04:38:26.589Z,2.20
2018-11-01T04:40:55.196Z,2.10
2018-11-01T04:43:23.860Z,2.10
2018-11-01T04:45:52.569Z,2.10
2018-11-01T04:48:21.418Z,2.20
2018-11-01T04:50:50.386Z,2.30
2018-11-01T04:53:19.025Z,2.30
2018-11-01T04:55:47.700Z,2.40
2018-11-01T04:58:16.388Z,2.50
2018-11-01T05:00:45.109Z,2.60
2018-11-01T05:03:13.812Z,2.70
2018-11-01T05:05:42.648Z,2.70
2018-11-01T05:08:11.280Z,2.70
2018-11-01T05:10:40.364Z,2.70
2018-11-01T05:13:09.425Z,2.70
2018-11-01T05:15:38.128Z,2.70
2018-11-01T05:18:06.880Z,2.60
2018-11-01T05:20:35.534Z,2.60
2018-11-01T05:23:04.253Z,2.70
2018-11-01T05:25:32.827Z,2.70
2018-11-01T05:28:01.436Z,2.70
2018-11-01T05:30:30.226Z,2.70
2018-11-01T05:32:58.932Z,2.80
2018-11-01T05:35:27.905Z,2.80
2018-11-01T05:37:56.899Z,2.90
2018-11-01T05:40:25.552Z,2.90
2018-11-01T05:42:54.588Z,2.90
2018-11-01T05:45:23.250Z,2.90
2018-11-01T05:47:52.275Z,2.90
2018-11-01T05:50:21.320Z,3.00
2018-11-01T05:52:49.948Z,3.10
2018-11-01T05:55:18.593Z,3.10
2018-11-01T05:57:47.319Z,3.10
2018-11-01T06:00:15.976Z,3.10
2018-11-01T06:02:46.738Z,3.10
2018-11-01T06:05:15.386Z,3.20
2018-11-01T06:07:50.344Z,3.20
2018-11-01T06:10:19.048Z,3.20
2018-11-01T06:12:47.648Z,3.00
2018-11-01T06:15:16.231Z,2.80
2018-11-01T06:17:44.834Z,2.70
2018-11-01T06:20:13.649Z,2.70
2018-11-01T06:22:42.301Z,2.70
2018-11-01T06:25:11.331Z,2.80
2018-11-01T06:27:39.972Z,2.90
2018-11-01T06:30:16.439Z,2.90
2018-11-01T06:32:46.440Z,3.00
2018-11-01T06:35:22.293Z,3.00
2018-11-01T06:37:50.952Z,3.10
2018-11-01T06:40:19.555Z,3.10
2018-11-01T06:42:48.792Z,3.10
2018-11-01T06:45:18.124Z,3.20
2018-11-01T06:47:46.741Z,3.20
2018-11-01T06:50:15.404Z,3.20
2018-11-01T06:52:44.124Z,3.30
2018-11-01T06:55:12.853Z,3.40
2018-11-01T06:57:41.467Z,3.50
2018-11-01T07:00:12.837Z,3.60
2018-11-01T07:02:42.511Z,3.60
2018-11-01T07:05:11.547Z,3.70
2018-11-01T07:07:40.407Z,3.70
2018-11-01T07:10:13.053Z,3.80
2018-11-01T07:12:41.754Z,3.90
2018-11-01T07:15:12.164Z,4.00
2018-11-01T07:17:41.425Z,4.10
2018-11-01T07:20:11.416Z,4.20
2018-11-01T07:22:40.732Z,4.20
2018-11-01T07:25:11.990Z,4.30
2018-11-01T07:27:40.997Z,4.30
2018-11-01T07:30:15.213Z,4.30
2018-11-01T07:32:44.013Z,4.30
2018-11-01T07:35:13.459Z,4.30
2018-11-01T07:37:43.189Z,4.20
2018-11-01T07:40:13.636Z,4.20
2018-11-01T07:42:42.329Z,4.30
2018-11-01T07:45:12.051Z,4.40
2018-11-01T07:47:41.643Z,4.50
2018-11-01T07:50:11.676Z,4.60
2018-11-01T07:52:42.192Z,4.70
2018-11-01T07:55:12.736Z,4.80
2018-11-01T07:57:41.766Z,4.70
2018-11-01T08:00:13.919Z,4.70
2018-11-01T08:02:43.902Z,4.80
2018-11-01T08:05:13.135Z,4.90
2018-11-01T08:07:42.401Z,5.00
2018-11-01T08:10:17.712Z,5.10
2018-11-01T08:12:46.862Z,5.10
2018-11-01T08:15:18.050Z,5.10
2018-11-01T08:17:47.435Z,5.20
2018-11-01T08:20:16.863Z,5.20
2018-11-01T08:22:46.436Z,5.20
2018-11-01T08:25:15.371Z,5.20
2018-11-01T08:27:44.473Z,5.20
2018-11-01T08:30:14.531Z,5.20
2018-11-01T08:32:43.402Z,5.30
2018-11-01T08:35:12.406Z,5.30
2018-11-01T08:37:42.349Z,5.40
2018-11-01T08:40:11.526Z,5.50
2018-11-01T08:42:40.816Z,5.60
2018-11-01T08:45:11.573Z,5.70
2018-11-01T08:47:40.869Z,5.80
2018-11-01T08:50:11.692Z,5.80
2018-11-01T08:52:42.310Z,5.70
2018-11-01T08:55:11.695Z,5.70
2018-11-01T08:57:42.915Z,5.70
2018-11-01T09:00:12.559Z,5.90
2018-11-01T09:02:43.551Z,5.90
2018-11-01T09:05:13.284Z,6.10
2018-11-01T09:07:42.676Z,6.20
2018-11-01T09:10:15.205Z,6.00
2018-11-01T09:12:43.951Z,5.80
2018-11-01T09:15:14.069Z,5.80
2018-11-01T09:17:43.166Z,5.90
2018-11-01T09:20:12.401Z,6.00
2018-11-01T09:22:42.024Z,6.20
2018-11-01T09:25:11.124Z,6.40
2018-11-01T09:27:39.814Z,6.40
2018-11-01T09:30:11.097Z,6.60
2018-11-01T09:32:40.596Z,6.70
2018-11-01T09:35:10.069Z,6.80
2018-11-01T09:37:39.678Z,7.00
2018-11-01T09:40:10.520Z,7.10
2018-11-01T09:42:39.761Z,7.20
2018-11-01T09:45:08.774Z,7.30
2018-11-01T09:47:37.974Z,7.20
2018-11-01T09:50:12.084Z,7.20
2018-11-01T09:52:41.200Z,7.30
2018-11-01T09:55:10.936Z,7.40
2018-11-01T09:57:40.398Z,7.50
2018-11-01T10:00:12.284Z,7.60
2018-11-01T10:02:43.402Z,7.90
2018-11-01T10:05:12.396Z,8.20
2018-11-01T10:07:41.256Z,8.40
2018-11-01T10:10:11.900Z,8.50
2018-11-01T10:12:41.197Z,8.40
2018-11-01T10:15:10.845Z,8.40
2018-11-01T10:17:39.978Z,8.50
2018-11-01T10:20:10.202Z,8.50
2018-11-01T10:22:39.117Z,8.60
2018-11-01T10:25:10.424Z,8.70
2018-11-01T10:27:39.128Z,8.90
2018-11-01T10:30:10.989Z,9.20
2018-11-01T10:32:39.721Z,9.70
2018-11-01T10:35:08.834Z,10.40
2018-11-01T10:37:38.233Z,11.10
2018-11-01T10:40:08.685Z,11.70
2018-11-01T10:42:37.445Z,12.20
2018-11-01T10:45:06.269Z,12.50
2018-11-01T10:47:41.131Z,12.60
2018-11-01T10:50:13.022Z,12.80
2018-11-01T10:52:41.650Z,13.00
2018-11-01T10:55:11.443Z,13.10
2018-11-01T10:57:40.527Z,13.00
2018-11-01T11:00:15.785Z,13.10
2018-11-01T11:02:47.360Z,13.20
2018-11-01T11:05:18.529Z,13.20
2018-11-01T11:07:47.509Z,12.90
2018-11-01T11:10:16.374Z,12.20
2018-11-01T11:12:45.220Z,11.70
2018-11-01T11:15:14.035Z,11.50
2018-11-01T11:17:42.618Z,11.50
2018-11-01T11:20:12.218Z,11.50
2018-11-01T11:22:41.154Z,11.60
2018-11-01T11:25:11.333Z,11.80
2018-11-01T11:27:40.629Z,12.00
2018-11-01T11:30:10.868Z,12.00
2018-11-01T11:32:40.582Z,12.30
2018-11-01T11:35:10.477Z,13.00
2018-11-01T11:37:39.479Z,13.60
2018-11-01T11:40:09.958Z,13.90
2018-11-01T11:42:38.589Z,13.90
2018-11-01T11:45:08.545Z,13.70
2018-11-01T11:47:37.504Z,13.50
2018-11-01T11:50:07.577Z,13.50
2018-11-01T11:52:36.300Z,13.30
2018-11-01T11:55:06.268Z,13.10
2018-11-01T11:57:35.773Z,12.90
2018-11-01T12:00:05.648Z,12.70
2018-11-01T12:02:34.408Z,12.70
2018-11-01T12:05:03.072Z,12.70
2018-11-01T12:07:31.983Z,12.50
2018-11-01T12:10:00.604Z,12.40
2018-11-01T12:12:29.263Z,12.30
2018-11-01T12:14:57.848Z,12.20
2018-11-01T12:17:26.519Z,12.00
2018-11-01T12:19:56.097Z,11.90
2018-11-01T12:22:25.120Z,12.00
2018-11-01T12:24:53.660Z,11.90
2018-11-01T12:27:22.343Z,11.80
2018-11-01T12:29:51.028Z,11.70
2018-11-01T12:32:19.705Z,11.60
2018-11-01T12:34:48.358Z,11.80
2018-11-01T12:37:17.008Z,12.10
2018-11-01T12:39:45.660Z,12.40
2018-11-01T12:42:14.261Z,12.70
2018-11-01T12:44:42.828Z,12.90
2018-11-01T12:47:11.486Z,13.10
2018-11-01T12:49:40.254Z,13.40
2018-11-01T12:52:09.082Z,13.40
2018-11-01T12:54:37.785Z,13.50
2018-11-01T12:57:06.827Z,13.60
2018-11-01T12:59:35.445Z,13.40
2018-11-01T13:02:04.160Z,13.20
2018-11-01T13:04:32.841Z,13.10
2018-11-01T13:07:02.547Z,13.30
2018-11-01T13:09:31.232Z,13.60
2018-11-01T13:11:59.891Z,14.00
2018-11-01T13:14:28.700Z,14.20
2018-11-01T13:16:57.417Z,14.40
2018-11-01T13:19:26.051Z,14.60
2018-11-01T13:21:54.762Z,15.00
2018-11-01T13:24:23.332Z,15.50
2018-11-01T13:26:51.952Z,15.60
2018-11-01T13:29:24.754Z,15.40
2018-11-01T13:31:53.411Z,15.40
2018-11-01T13:34:22.042Z,15.40
2018-11-01T13:36:50.909Z,15.40
2018-11-01T13:39:19.542Z,15.40
2018-11-01T13:41:48.398Z,15.60
2018-11-01T13:44:22.477Z,15.90
2018-11-01T13:46:51.193Z,16.20
2018-11-01T13:49:19.904Z,16.40
2018-11-01T13:51:48.589Z,16.70
2018-11-01T13:54:17.196Z,17.40
2018-11-01T13:56:46.325Z,17.80
2018-11-01T13:59:15.233Z,17.80
2018-11-01T14:01:43.958Z,17.50
2018-11-01T14:04:12.508Z,17.50
2018-11-01T14:06:41.367Z,17.70
2018-11-01T14:09:10.339Z,17.60
2018-11-01T14:11:39.323Z,17.50
2018-11-01T14:14:08.657Z,17.30
2018-11-01T14:16:37.703Z,17.30
2018-11-01T14:19:06.766Z,18.00
2018-11-01T14:21:35.456Z,18.80
2018-11-01T14:24:04.073Z,19.50
2018-11-01T14:26:32.654Z,20.40
2018-11-01T14:29:01.701Z,20.80
2018-11-01T14:31:30.326Z,21.30
2018-11-01T14:33:59.031Z,21.70
2018-11-01T14:36:27.675Z,22.20
2018-11-01T14:38:56.335Z,22.90
2018-11-01T14:41:25.000Z,23.60
2018-11-01T14:43:53.833Z,24.20
2018-11-01T14:46:23.502Z,24.50
2018-11-01T14:48:52.147Z,25.00
2018-11-01T14:51:20.988Z,25.50
2018-11-01T14:53:49.946Z,25.80
2018-11-01T14:56:20.197Z,26.00
2018-11-01T14:58:48.642Z,25.60
2018-11-01T15:01:16.033Z,25.70
2018-11-01T15:03:44.788Z,25.80
2018-11-01T15:06:13.365Z,26.00
2018-11-01T15:08:42.076Z,26.30
2018-11-01T15:11:10.754Z,26.40
2018-11-01T15:13:39.460Z,26.80
2018-11-01T15:16:08.209Z,27.00
2018-11-01T15:18:36.848Z,27.20
2018-11-01T15:21:05.636Z,26.40
2018-11-01T15:23:34.333Z,24.20
2018-11-01T15:26:02.982Z,22.50
2018-11-01T15:28:31.695Z,21.40
2018-11-01T15:31:00.341Z,21.20
2018-11-01T15:33:29.111Z,20.70
2018-11-01T15:35:57.720Z,19.50
2018-11-01T15:38:26.431Z,18.30
2018-11-01T15:41:00.270Z,17.20
2018-11-01T15:43:29.482Z,16.20
2018-11-01T15:45:58.087Z,15.30
2018-11-01T15:48:27.894Z,14.50
2018-11-01T15:50:56.463Z,13.90
2018-11-01T15:53:27.887Z,13.60
2018-11-01T15:55:57.533Z,13.30
2018-11-01T15:58:27.690Z,13.00
2018-11-01T16:00:56.642Z,12.60
2018-11-01T16:03:25.458Z,12.40
2018-11-01T16:05:56.967Z,12.10
2018-11-01T16:08:31.704Z,11.80
2018-11-01T16:11:00.430Z,11.50
2018-11-01T16:13:29.304Z,11.10
2018-11-01T16:15:58.208Z,10.90
2018-11-01T16:18:27.167Z,10.70
2018-11-01T16:20:57.632Z,10.70
2018-11-01T16:23:26.756Z,10.60
2018-11-01T16:25:55.374Z,10.40
2018-11-01T16:28:24.221Z,10.20
2018-11-01T16:30:53.113Z,9.90
2018-11-01T16:33:21.707Z,9.70
2018-11-01T16:35:50.487Z,9.70
2018-11-01T16:38:19.316Z,9.60
2018-11-01T16:40:47.985Z,9.70
2018-11-01T16:43:16.648Z,9.70
2018-11-01T16:45:45.617Z,9.60
2018-11-01T16:48:14.489Z,9.40
2018-11-01T16:50:43.325Z,9.20
2018-11-01T16:53:12.155Z,9.10
2018-11-01T16:55:41.001Z,8.90
2018-11-01T16:58:09.708Z,8.80
2018-11-01T17:00:38.427Z,8.80
2018-11-01T17:03:07.046Z,8.70
2018-11-01T17:05:35.688Z,8.70
2018-11-01T17:08:04.757Z,8.60
2018-11-01T17:10:33.398Z,8.60
2018-11-01T17:13:02.051Z,8.60
2018-11-01T17:15:31.090Z,8.60
2018-11-01T17:17:59.693Z,8.60
2018-11-01T17:20:28.327Z,8.60
2018-11-01T17:22:56.954Z,8.50
2018-11-01T17:25:25.699Z,8.50
2018-11-01T17:27:54.526Z,8.50
2018-11-01T17:30:23.152Z,8.50
2018-11-01T17:32:54.574Z,8.40
2018-11-01T17:35:23.276Z,8.40
2018-11-01T17:37:51.892Z,8.40
2018-11-01T17:40:20.579Z,8.40
2018-11-01T17:42:49.294Z,8.30
2018-11-01T17:45:18.059Z,8.30
2018-11-01T17:47:46.763Z,8.30
2018-11-01T17:50:16.873Z,8.30
2018-11-01T17:52:45.615Z,8.20
2018-11-01T17:55:14.308Z,8.20
2018-11-01T17:57:43.564Z,8.30
2018-11-01T18:00:13.901Z,8.20
2018-11-01T18:02:43.025Z,8.10
2018-11-01T18:05:12.183Z,8.10
2018-11-01T18:07:41.773Z,8.00
2018-11-01T18:10:11.978Z,8.00
2018-11-01T18:12:41.456Z,8.00
2018-11-01T18:15:10.652Z,8.00
2018-11-01T18:17:39.478Z,7.90
2018-11-01T18:20:09.898Z,7.90
2018-11-01T18:22:38.589Z,7.90
2018-11-01T18:25:08.907Z,7.90
2018-11-01T18:27:37.516Z,7.90
2018-11-01T18:30:08.677Z,7.90
2018-11-01T18:32:37.760Z,7.90
2018-11-01T18:35:07.566Z,7.90
2018-11-01T18:37:36.267Z,7.90
2018-11-01T18:40:05.843Z,7.90
2018-11-01T18:42:34.540Z,7.90
2018-11-01T18:45:03.237Z,7.90
2018-11-01T18:47:33.694Z,7.90
2018-11-01T18:50:02.414Z,7.80
2018-11-01T18:52:31.078Z,7.80
2018-11-01T18:54:59.735Z,7.80
2018-11-01T18:57:28.333Z,7.80
2018-11-01T18:59:57.083Z,7.80
2018-11-01T19:02:26.344Z,7.70
2018-11-01T19:04:55.002Z,7.70
2018-11-01T19:07:23.716Z,7.80
2018-11-01T19:09:52.374Z,7.80
2018-11-01T19:12:21.389Z,7.90
2018-11-01T19:14:50.078Z,8.00
2018-11-01T19:17:18.689Z,8.10
2018-11-01T19:19:47.354Z,8.10
2018-11-01T19:22:16.024Z,8.10
2018-11-01T19:24:44.748Z,8.20
2018-11-01T19:27:13.897Z,8.10
2018-11-01T19:29:42.378Z,8.00
2018-11-01T19:32:11.183Z,8.00
2018-11-01T19:34:40.009Z,8.00
2018-11-01T19:37:08.811Z,8.10
2018-11-01T19:39:41.673Z,8.20
2018-11-01T19:42:10.330Z,8.20
2018-11-01T19:44:39.294Z,8.30
2018-11-01T19:47:07.949Z,8.30
2018-11-01T19:49:36.638Z,8.30
2018-11-01T19:52:05.947Z,8.50
2018-11-01T19:54:35.456Z,8.70
2018-11-01T19:57:04.202Z,8.80
2018-11-01T19:59:32.832Z,8.90
2018-11-01T20:02:01.855Z,9.00
2018-11-01T20:04:30.521Z,9.10
2018-11-01T20:06:59.206Z,9.30
2018-11-01T20:09:27.857Z,9.40
2018-11-01T20:11:56.852Z,9.40
2018-11-01T20:14:25.729Z,9.40
2018-11-01T20:16:54.581Z,9.40
2018-11-01T20:19:23.501Z,9.40
2018-11-01T20:21:51.934Z,9.30
2018-11-01T20:24:20.612Z,9.20
2018-11-01T20:26:49.310Z,9.10
2018-11-01T20:29:18.100Z,9.10
2018-11-01T20:31:46.767Z,9.10
2018-11-01T20:34:15.658Z,9.10
2018-11-01T20:36:44.546Z,9.20
2018-11-01T20:39:14.479Z,9.20
2018-11-01T20:41:43.325Z,9.10
2018-11-01T20:44:12.667Z,9.10
2018-11-01T20:46:41.260Z,9.00
2018-11-01T20:49:09.910Z,9.00
2018-11-01T20:51:38.637Z,8.90
2018-11-01T20:54:07.460Z,8.90
2018-11-01T20:56:36.420Z,8.90
2018-11-01T20:59:05.396Z,8.90
2018-11-01T21:01:34.219Z,8.90
2018-11-01T21:04:02.835Z,8.90
2018-11-01T21:06:31.528Z,8.90
2018-11-01T21:09:00.080Z,8.90
2018-11-01T21:11:28.843Z,8.90
2018-11-01T21:13:57.345Z,8.80
2018-11-01T21:16:26.185Z,8.80
2018-11-01T21:18:55.133Z,8.80
2018-11-01T21:21:23.764Z,8.70
2018-11-01T21:23:52.400Z,8.70
2018-11-01T21:26:21.012Z,8.70
2018-11-01T21:28:49.940Z,8.70
2018-11-01T21:31:18.620Z,8.60
2018-11-01T21:33:47.693Z,8.50
2018-11-01T21:36:16.316Z,8.50
2018-11-01T21:38:45.060Z,8.50
2018-11-01T21:41:13.811Z,8.50
2018-11-01T21:43:42.912Z,8.50
2018-11-01T21:46:11.542Z,8.50
2018-11-01T21:48:40.222Z,8.50
2018-11-01T21:51:08.882Z,8.50
2018-11-01T21:53:37.661Z,8.50
2018-11-01T21:56:06.844Z,8.50
2018-11-01T21:58:35.432Z,8.50
2018-11-01T22:01:04.133Z,8.50
2018-11-01T22:03:32.760Z,8.50
2018-11-01T22:06:01.622Z,8.50
2018-11-01T22:08:30.274Z,8.50
2018-11-01T22:10:58.920Z,8.50
2018-11-01T22:13:27.527Z,8.40
2018-11-01T22:15:56.279Z,8.40
2018-11-01T22:18:24.939Z,8.40
2018-11-01T22:20:53.624Z,8.30
2018-11-01T22:23:22.437Z,8.20
2018-11-01T22:25:51.551Z,8.10
2018-11-01T22:28:20.278Z,8.00
2018-11-01T22:30:48.812Z,7.80
2018-11-01T22:33:17.423Z,7.60
2018-11-01T22:35:46.131Z,7.40
2018-11-01T22:38:14.879Z,7.30
2018-11-01T22:40:43.643Z,7.20
2018-11-01T22:43:12.257Z,7.10
2018-11-01T22:45:40.917Z,7.00
2018-11-01T22:48:09.804Z,6.90
2018-11-01T22:50:38.464Z,6.80
2018-11-01T22:53:07.132Z,6.70
2018-11-01T22:55:35.896Z,6.70
2018-11-01T22:58:04.792Z,6.60
2018-11-01T23:00:33.669Z,6.50
2018-11-01T23:03:02.292Z,6.40
2018-11-01T23:05:30.908Z,6.30
2018-11-01T23:08:00.264Z,6.30
2018-11-01T23:10:28.972Z,6.30
2018-11-01T23:12:57.617Z,6.20
2018-11-01T23:15:26.205Z,6.10
2018-11-01T23:17:54.836Z,6.00
2018-11-01T23:20:23.694Z,6.00
2018-11-01T23:22:52.391Z,6.00
2018-11-01T23:25:21.040Z,5.90
2018-11-01T23:27:49.782Z,5.80
2018-11-01T23:30:18.682Z,5.80
2018-11-01T23:32:47.314Z,5.90
2018-11-01T23:35:16.251Z,5.90
2018-11-01T23:37:50.126Z,5.80
2018-11-01T23:40:23.989Z,5.80
2018-11-01T23:42:57.848Z,5.70
2018-11-01T23:45:31.988Z,5.70
2018-11-01T23:47:59.790Z,5.70
2018-11-01T23:50:41.525Z,5.80
2018-11-01T23:53:13.579Z,5.70
2018-11-01T23:55:42.988Z,5.60
2018-11-01T23:58:11.680Z,5.60
